createdAt,value
2022-12-14T00:01:41.423Z,3.05
2022-12-14T00:04:10.322Z,2.75
2022-12-14T00:06:37.211Z,3.72
2022-12-14T00:09:05.431Z,2.15
2022-12-14T00:11:34.839Z,3.00
2022-12-14T00:14:03.567Z,2.38
2022-12-14T00:16:32.584Z,2.78
2022-12-14T00:19:00.997Z,3.28
2022-12-14T00:21:28.123Z,3.05
2022-12-14T00:23:55.461Z,3.28
2022-12-14T00:26:25.709Z,2.58
2022-12-14T00:28:54.497Z,2.25
2022-12-14T00:31:22.772Z,2.22
2022-12-14T00:33:50.569Z,2.05
2022-12-14T00:36:17.821Z,2.88
2022-12-14T00:38:44.646Z,2.17
2022-12-14T00:41:12.364Z,2.55
2022-12-14T00:43:39.411Z,3.08
2022-12-14T00:46:06.739Z,2.85
2022-12-14T00:48:34.245Z,2.17
2022-12-14T00:51:00.971Z,2.75
2022-12-14T00:53:27.573Z,2.97
2022-12-14T00:55:54.383Z,3.75
2022-12-14T00:58:24.561Z,2.70
2022-12-14T01:01:06.843Z,2.88
2022-12-14T01:03:34.413Z,2.63
2022-12-14T01:06:01.243Z,2.40
2022-12-14T01:08:36.400Z,2.97
2022-12-14T01:11:06.473Z,3.30
2022-12-14T01:13:33.464Z,3.22
2022-12-14T01:16:12.271Z,3.22
2022-12-14T01:18:40.338Z,2.45
2022-12-14T01:21:18.055Z,2.88
2022-12-14T01:23:45.876Z,2.60
2022-12-14T01:26:15.000Z,3.15
2022-12-14T01:28:42.426Z,2.58
2022-12-14T01:31:14.662Z,2.78
2022-12-14T01:33:41.532Z,2.60
2022-12-14T01:36:11.250Z,2.95
2022-12-14T01:38:37.884Z,3.72
2022-12-14T01:41:06.009Z,4.75
2022-12-14T01:44:07.605Z,2.35
2022-12-14T01:46:46.400Z,3.25
2022-12-14T01:49:19.464Z,2.58
2022-12-14T01:52:04.824Z,2.53
2022-12-14T01:54:35.702Z,2.05
2022-12-14T01:57:02.454Z,2.45
2022-12-14T01:59:34.524Z,2.42
2022-12-14T02:02:06.514Z,2.70
2022-12-14T02:04:37.602Z,2.42
2022-12-14T02:07:04.840Z,2.53
2022-12-14T02:09:36.284Z,2.28
2022-12-14T02:12:18.842Z,2.05
2022-12-14T02:14:47.240Z,2.22
2022-12-14T02:17:15.765Z,2.03
2022-12-14T02:19:43.961Z,2.47
2022-12-14T02:22:37.684Z,2.95
2022-12-14T02:25:16.254Z,2.35
2022-12-14T02:28:16.297Z,2.85
2022-12-14T02:30:50.210Z,2.33
2022-12-14T02:33:16.748Z,2.75
2022-12-14T02:36:05.535Z,2.42
2022-12-14T02:38:50.275Z,2.05
2022-12-14T02:41:42.448Z,2.17
2022-12-14T02:44:15.049Z,2.88
2022-12-14T02:47:09.403Z,2.83
2022-12-14T02:49:49.711Z,3.28
2022-12-14T02:52:28.634Z,3.20
2022-12-14T02:55:01.765Z,2.90
2022-12-14T02:57:44.956Z,2.63
2022-12-14T03:00:12.655Z,2.95
2022-12-14T03:02:42.393Z,2.92
2022-12-14T03:05:10.570Z,3.40
2022-12-14T03:08:05.189Z,2.95
2022-12-14T03:10:56.493Z,3.30
2022-12-14T03:13:46.439Z,3.45
2022-12-14T03:16:22.641Z,3.45
2022-12-14T03:18:58.307Z,2.72
2022-12-14T03:21:29.926Z,2.90
2022-12-14T03:23:59.102Z,2.17
2022-12-14T03:26:35.345Z,2.78
2022-12-14T03:32:15.421Z,2.88
2022-12-14T03:34:49.401Z,3.38
2022-12-14T03:37:26.461Z,2.72
2022-12-14T03:39:53.118Z,2.10
2022-12-14T03:42:24.625Z,2.00
2022-12-14T03:45:09.733Z,3.17
2022-12-14T03:48:00.226Z,2.67
2022-12-14T03:50:44.131Z,2.08
2022-12-14T03:53:28.468Z,2.60
2022-12-14T03:56:16.465Z,2.35
2022-12-14T03:59:08.538Z,2.63
2022-12-14T04:01:58.636Z,2.78
2022-12-14T04:04:40.649Z,2.35
2022-12-14T04:07:16.945Z,2.50
2022-12-14T04:10:40.601Z,2.70
2022-12-14T04:13:31.631Z,2.00
2022-12-14T04:16:23.992Z,2.63
2022-12-14T04:18:59.687Z,2.47
2022-12-14T04:21:38.650Z,2.65
2022-12-14T04:24:32.562Z,3.08
2022-12-14T04:27:06.751Z,2.38
2022-12-14T04:29:55.570Z,3.13
2022-12-14T04:32:38.165Z,3.45
2022-12-14T04:35:10.941Z,2.78
2022-12-14T04:37:40.378Z,2.70
2022-12-14T04:40:14.836Z,3.58
2022-12-14T04:42:48.456Z,3.28
2022-12-14T04:45:27.012Z,3.35
2022-12-14T04:48:11.666Z,2.72
2022-12-14T04:50:44.210Z,3.30
2022-12-14T04:53:16.910Z,3.50
2022-12-14T04:55:43.593Z,4.45
2022-12-14T04:58:19.921Z,2.28
2022-12-14T05:01:20.266Z,3.90
2022-12-14T05:04:39.751Z,2.72
2022-12-14T05:07:09.269Z,3.63
2022-12-14T05:09:38.326Z,3.38
2022-12-14T05:12:16.994Z,3.30
2022-12-14T05:15:02.262Z,3.22
2022-12-14T05:17:30.523Z,4.72
2022-12-14T05:19:59.911Z,5.47
2022-12-14T05:22:26.525Z,4.60
2022-12-14T05:24:54.518Z,3.63
2022-12-14T05:27:21.086Z,6.10
2022-12-14T05:29:47.673Z,7.18
2022-12-14T05:32:14.354Z,6.13
2022-12-14T05:34:41.164Z,2.67
2022-12-14T05:37:11.636Z,4.47
2022-12-14T05:39:41.287Z,3.38
2022-12-14T05:42:07.826Z,3.47
2022-12-14T05:44:34.429Z,3.97
2022-12-14T05:47:01.011Z,3.47
2022-12-14T05:49:31.883Z,4.90
2022-12-14T05:51:58.429Z,3.75
2022-12-14T05:54:27.307Z,2.47
2022-12-14T05:56:53.850Z,3.33
2022-12-14T05:59:20.397Z,2.97
2022-12-14T06:01:50.327Z,3.00
2022-12-14T06:04:18.691Z,2.20
2022-12-14T06:06:45.729Z,2.78
2022-12-14T06:09:17.814Z,3.53
2022-12-14T06:11:45.878Z,3.33
2022-12-14T06:14:13.280Z,3.28
2022-12-14T06:16:41.700Z,3.20
2022-12-14T06:19:08.592Z,2.40
2022-12-14T06:21:37.535Z,2.42
2022-12-14T06:24:05.166Z,3.03
2022-12-14T06:26:33.632Z,3.55
2022-12-14T06:29:00.208Z,3.60
2022-12-14T06:31:29.971Z,3.53
2022-12-14T06:34:02.594Z,3.47
2022-12-14T06:36:34.295Z,3.90
2022-12-14T06:39:04.715Z,2.45
2022-12-14T06:41:31.833Z,3.28
2022-12-14T06:44:05.618Z,2.28
2022-12-14T06:46:32.651Z,3.55
2022-12-14T06:48:59.240Z,3.70
2022-12-14T06:51:26.886Z,3.45
2022-12-14T06:53:57.101Z,2.85
2022-12-14T06:56:26.006Z,3.05
2022-12-14T06:58:54.725Z,3.30
2022-12-14T07:01:24.106Z,3.05
2022-12-14T07:03:57.921Z,4.15
2022-12-14T07:06:26.625Z,3.28
2022-12-14T07:08:58.052Z,3.38
2022-12-14T07:11:25.939Z,2.40
2022-12-14T07:13:53.665Z,3.70
2022-12-14T07:16:26.941Z,2.95
2022-12-14T07:18:56.889Z,3.97
2022-12-14T07:21:24.177Z,3.22
2022-12-14T07:23:52.965Z,3.38
2022-12-14T07:26:25.030Z,3.65
2022-12-14T07:28:52.591Z,4.88
2022-12-14T07:31:23.239Z,4.38
2022-12-14T07:33:53.363Z,4.93
2022-12-14T07:36:20.871Z,3.60
2022-12-14T07:38:49.954Z,3.67
2022-12-14T07:41:34.750Z,3.75
2022-12-14T07:44:02.015Z,3.92
2022-12-14T07:46:30.553Z,3.78
2022-12-14T07:48:58.266Z,3.45
2022-12-14T07:51:28.672Z,2.40
2022-12-14T07:53:55.794Z,3.33
2022-12-14T07:56:25.181Z,2.80
2022-12-14T07:58:54.228Z,2.85
2022-12-14T08:01:24.123Z,3.55
2022-12-14T08:03:56.198Z,3.20
2022-12-14T08:06:28.012Z,4.78
2022-12-14T08:08:55.771Z,3.92
2022-12-14T08:11:24.036Z,4.32
2022-12-14T08:14:01.734Z,5.88
2022-12-14T08:16:29.160Z,6.28
2022-12-14T08:18:57.832Z,5.32
2022-12-14T08:21:25.999Z,4.28
2022-12-14T08:23:55.053Z,4.55
2022-12-14T08:26:22.426Z,3.95
2022-12-14T08:28:49.006Z,4.53
2022-12-14T08:31:20.868Z,3.53
2022-12-14T08:33:48.629Z,7.45
2022-12-14T08:36:18.202Z,9.50
2022-12-14T08:38:44.913Z,6.07
2022-12-14T08:41:13.521Z,7.28
2022-12-14T08:43:40.864Z,2.92
2022-12-14T08:46:10.313Z,4.03
2022-12-14T08:48:37.914Z,5.35
2022-12-14T08:51:08.775Z,4.93
2022-12-14T08:53:37.232Z,4.38
2022-12-14T08:56:05.952Z,3.83
2022-12-14T08:58:33.818Z,4.18
2022-12-14T09:01:07.625Z,5.35
2022-12-14T09:03:34.928Z,3.15
2022-12-14T09:06:06.270Z,5.00
2022-12-14T09:08:34.161Z,4.00
2022-12-14T09:11:01.645Z,3.15
2022-12-14T09:13:29.371Z,4.57
2022-12-14T09:16:06.309Z,3.33
2022-12-14T09:18:34.532Z,3.72
2022-12-14T09:21:01.213Z,4.38
2022-12-14T09:23:30.875Z,3.83
2022-12-14T09:26:06.039Z,5.07
2022-12-14T09:28:36.038Z,2.72
2022-12-14T09:31:08.590Z,6.07
2022-12-14T09:33:37.262Z,5.18
2022-12-14T09:36:25.797Z,5.20
2022-12-14T09:38:56.145Z,4.78
2022-12-14T09:41:34.975Z,3.67
2022-12-14T09:44:18.762Z,4.93
2022-12-14T09:46:45.952Z,5.68
2022-12-14T09:49:29.622Z,4.00
2022-12-14T09:52:26.885Z,4.63
2022-12-14T09:57:41.605Z,5.03
2022-12-14T10:00:21.204Z,4.30
2022-12-14T10:03:24.093Z,5.28
2022-12-14T10:06:22.966Z,5.75
2022-12-14T10:09:08.442Z,3.70
2022-12-14T10:11:59.229Z,5.00
2022-12-14T10:14:44.578Z,4.97
2022-12-14T10:17:26.398Z,5.43
2022-12-14T10:19:57.194Z,4.78
2022-12-14T10:22:43.286Z,5.45
2022-12-14T10:25:15.598Z,7.25
2022-12-14T10:28:10.270Z,4.75
2022-12-14T10:30:37.202Z,6.45
2022-12-14T10:33:30.416Z,5.70
2022-12-14T10:36:17.682Z,4.60
2022-12-14T10:39:19.055Z,6.32
2022-12-14T10:41:51.350Z,8.90
2022-12-14T10:44:39.740Z,6.00
2022-12-14T10:47:29.847Z,6.60
2022-12-14T10:50:07.345Z,5.85
2022-12-14T10:52:41.640Z,4.90
2022-12-14T10:55:17.485Z,5.65
2022-12-14T10:57:44.290Z,5.60
2022-12-14T11:00:23.216Z,6.80
2022-12-14T11:02:56.082Z,9.40
2022-12-14T11:05:36.999Z,6.43
2022-12-14T11:08:07.451Z,7.45
2022-12-14T11:10:40.986Z,6.10
2022-12-14T11:13:15.576Z,6.07
2022-12-14T11:15:47.776Z,4.60
2022-12-14T11:18:18.364Z,5.45
2022-12-14T11:21:05.735Z,4.88
2022-12-14T11:23:46.135Z,6.25
2022-12-14T11:26:20.890Z,5.80
2022-12-14T11:28:51.286Z,6.22
2022-12-14T11:31:22.449Z,4.53
2022-12-14T11:33:51.598Z,6.32
2022-12-14T11:36:27.666Z,5.95
2022-12-14T11:38:58.754Z,4.63
2022-12-14T11:41:33.467Z,5.15
2022-12-14T11:44:16.600Z,5.43
2022-12-14T11:46:52.063Z,7.82
2022-12-14T11:49:27.597Z,8.45
2022-12-14T11:52:10.556Z,6.57
2022-12-14T11:54:49.564Z,3.70
2022-12-14T11:57:28.266Z,5.47
2022-12-14T12:00:24.019Z,5.93
2022-12-14T12:03:03.404Z,6.97
2022-12-14T12:05:39.380Z,6.60
2022-12-14T12:08:28.812Z,4.63
2022-12-14T12:11:02.681Z,4.88
2022-12-14T12:13:39.526Z,5.80
2022-12-14T12:16:06.400Z,4.85
2022-12-14T12:18:46.618Z,6.57
2022-12-14T12:21:24.791Z,5.65
2022-12-14T12:24:23.799Z,5.22
2022-12-14T12:26:56.549Z,4.25
2022-12-14T12:29:37.061Z,4.68
2022-12-14T12:32:34.702Z,4.35
2022-12-14T12:35:19.029Z,6.13
2022-12-14T12:37:48.813Z,8.57
2022-12-14T12:40:39.228Z,6.57
2022-12-14T12:43:20.158Z,7.20
2022-12-14T12:45:52.552Z,6.00
2022-12-14T12:48:41.172Z,6.43
2022-12-14T12:51:33.368Z,4.90
2022-12-14T12:54:06.297Z,4.35
2022-12-14T12:56:48.141Z,5.18
2022-12-14T12:59:31.280Z,6.28
2022-12-14T13:02:03.364Z,6.30
2022-12-14T13:04:38.063Z,5.72
2022-12-14T13:07:32.492Z,6.60
2022-12-14T13:10:22.737Z,5.80
2022-12-14T13:12:54.291Z,6.80
2022-12-14T13:15:32.805Z,6.82
2022-12-14T13:18:56.520Z,7.97
2022-12-14T13:21:27.342Z,5.53
2022-12-14T13:23:54.013Z,4.03
2022-12-14T13:27:02.983Z,5.93
2022-12-14T13:29:39.292Z,3.05
2022-12-14T13:35:19.519Z,4.93
2022-12-14T13:38:07.528Z,6.00
2022-12-14T13:41:12.841Z,4.95
2022-12-14T13:44:00.848Z,5.57
2022-12-14T13:46:30.232Z,5.38
2022-12-14T13:49:05.431Z,5.65
2022-12-14T13:51:39.463Z,3.15
2022-12-14T13:54:18.362Z,3.70
2022-12-14T13:56:47.467Z,3.22
2022-12-14T13:59:38.067Z,4.63
2022-12-14T14:02:06.116Z,5.32
2022-12-14T14:04:35.715Z,4.72
2022-12-14T14:07:24.055Z,5.60
2022-12-14T14:10:00.878Z,4.68
2022-12-14T14:12:35.201Z,6.07
2022-12-14T14:15:03.817Z,3.38
2022-12-14T14:17:42.904Z,4.10
2022-12-14T14:20:47.115Z,4.95
2022-12-14T14:23:14.181Z,3.42
2022-12-14T14:25:51.379Z,3.83
2022-12-14T14:28:23.177Z,4.15
2022-12-14T14:30:53.153Z,5.15
2022-12-14T14:33:52.888Z,4.70
2022-12-14T14:36:33.820Z,4.22
2022-12-14T14:39:03.224Z,4.70
2022-12-14T14:41:42.971Z,6.70
2022-12-14T14:44:38.830Z,4.70
2022-12-14T14:47:15.865Z,3.83
2022-12-14T14:49:44.815Z,3.97
2022-12-14T14:52:40.892Z,4.35
2022-12-14T14:55:51.911Z,5.45
2022-12-14T14:58:22.775Z,4.00
2022-12-14T15:00:59.653Z,3.67
2022-12-14T15:03:38.895Z,5.28
2022-12-14T15:06:31.673Z,4.43
2022-12-14T15:08:58.289Z,3.58
2022-12-14T15:11:28.028Z,4.65
2022-12-14T15:14:00.284Z,5.38
2022-12-14T15:16:42.695Z,5.40
2022-12-14T15:19:33.768Z,4.65
2022-12-14T15:22:05.388Z,4.95
2022-12-14T15:24:44.781Z,4.43
2022-12-14T15:27:26.343Z,5.95
2022-12-14T15:29:56.702Z,5.45
2022-12-14T15:32:27.226Z,5.50
2022-12-14T15:34:59.473Z,5.05
2022-12-14T15:37:45.755Z,5.50
2022-12-14T15:40:24.142Z,5.25
2022-12-14T15:42:56.087Z,5.93
2022-12-14T15:45:32.077Z,4.10
2022-12-14T15:48:25.971Z,5.90
2022-12-14T15:50:56.005Z,2.85
2022-12-14T15:53:42.669Z,4.95
2022-12-14T15:56:32.994Z,5.20
2022-12-14T15:59:02.181Z,4.43
2022-12-14T16:01:44.894Z,5.65
2022-12-14T16:04:18.818Z,7.00
2022-12-14T16:06:56.983Z,3.38
2022-12-14T16:09:34.788Z,5.88
2022-12-14T16:12:15.237Z,5.65
2022-12-14T16:14:45.499Z,7.18
2022-12-14T16:17:14.573Z,6.25
2022-12-14T16:19:58.690Z,5.05
2022-12-14T16:22:29.835Z,6.80
2022-12-14T16:25:08.535Z,7.57
2022-12-14T16:27:41.266Z,8.90
2022-12-14T16:30:26.862Z,9.95
2022-12-14T16:33:17.979Z,9.07
2022-12-14T16:35:46.845Z,9.25
2022-12-14T16:38:18.131Z,8.27
2022-12-14T16:40:44.740Z,7.60
2022-12-14T16:43:37.005Z,8.52
2022-12-14T16:46:03.799Z,7.43
2022-12-14T16:48:36.826Z,7.85
2022-12-14T16:51:37.937Z,6.05
2022-12-14T16:54:22.976Z,4.65
2022-12-14T16:56:55.836Z,5.07
2022-12-14T16:59:27.331Z,6.80
2022-12-14T17:01:54.365Z,6.03
2022-12-14T17:04:22.626Z,4.53
2022-12-14T17:06:51.189Z,8.68
2022-12-14T17:09:23.656Z,7.95
2022-12-14T17:11:53.006Z,4.93
2022-12-14T17:14:19.689Z,5.68
2022-12-14T17:16:48.409Z,5.15
2022-12-14T17:19:40.074Z,6.82
2022-12-14T17:22:34.551Z,4.10
2022-12-14T17:25:02.662Z,4.97
2022-12-14T17:27:29.959Z,6.85
2022-12-14T17:29:57.504Z,3.92
2022-12-14T17:32:29.916Z,3.75
2022-12-14T17:34:57.877Z,3.55
2022-12-14T17:37:26.824Z,4.78
2022-12-14T17:39:55.301Z,3.35
2022-12-14T17:42:22.613Z,3.08
2022-12-14T17:44:54.226Z,5.07
2022-12-14T17:47:26.437Z,3.10
2022-12-14T17:49:55.790Z,4.28
2022-12-14T17:52:30.464Z,5.05
2022-12-14T17:54:57.919Z,3.88
2022-12-14T17:57:26.418Z,4.22
2022-12-14T18:00:11.747Z,3.55
2022-12-14T18:02:40.003Z,4.40
2022-12-14T18:05:13.845Z,5.57
2022-12-14T18:07:40.391Z,4.70
2022-12-14T18:10:07.465Z,4.45
2022-12-14T18:12:34.904Z,4.28
2022-12-14T18:15:01.522Z,4.20
2022-12-14T18:17:58.677Z,3.63
2022-12-14T18:20:25.960Z,4.85
2022-12-14T18:22:53.995Z,4.50
2022-12-14T18:25:33.416Z,3.63
2022-12-14T18:28:02.077Z,3.85
2022-12-14T18:30:34.932Z,3.15
2022-12-14T18:33:06.286Z,4.07
2022-12-14T18:35:34.361Z,1.88
2022-12-14T18:38:09.306Z,3.60
2022-12-14T18:40:36.804Z,3.75
2022-12-14T18:43:04.014Z,4.40
2022-12-14T18:45:35.475Z,3.83
2022-12-14T18:48:02.244Z,3.25
2022-12-14T18:50:31.401Z,3.92
2022-12-14T18:53:01.242Z,3.55
2022-12-14T18:55:33.212Z,3.25
2022-12-14T18:58:03.969Z,3.65
2022-12-14T19:00:33.880Z,3.85
2022-12-14T19:03:02.572Z,5.35
2022-12-14T19:05:30.861Z,3.70
2022-12-14T19:07:59.215Z,4.80
2022-12-14T19:10:28.958Z,3.47
2022-12-14T19:12:56.175Z,3.47
2022-12-14T19:15:26.508Z,4.18
2022-12-14T19:17:53.394Z,4.20
2022-12-14T19:20:21.017Z,3.40
2022-12-14T19:22:48.300Z,3.60
2022-12-14T19:25:16.338Z,4.85
2022-12-14T19:28:20.335Z,4.03
2022-12-14T19:30:34.637Z,4.45
2022-12-14T19:33:03.734Z,3.83
2022-12-14T19:38:20.101Z,5.47
2022-12-14T19:41:21.511Z,5.68
2022-12-14T19:43:50.178Z,4.75
2022-12-14T19:46:18.258Z,5.60
2022-12-14T19:48:45.222Z,4.82
2022-12-14T19:51:13.645Z,4.28
2022-12-14T19:53:45.315Z,7.18
2022-12-14T19:56:15.422Z,6.22
2022-12-14T19:58:41.993Z,6.20
2022-12-14T20:01:14.678Z,3.83
2022-12-14T20:03:41.773Z,4.53
2022-12-14T20:06:09.549Z,5.20
2022-12-14T20:08:36.491Z,4.25
2022-12-14T20:11:08.088Z,4.05
2022-12-14T20:13:35.007Z,4.10
2022-12-14T20:16:02.311Z,4.82
2022-12-14T20:18:30.941Z,4.55
2022-12-14T20:21:08.919Z,3.60
2022-12-14T20:23:37.991Z,3.47
2022-12-14T20:26:07.565Z,6.15
2022-12-14T20:28:34.465Z,3.80
2022-12-14T20:31:05.457Z,4.22
2022-12-14T20:33:32.750Z,4.50
2022-12-14T20:35:59.899Z,4.72
2022-12-14T20:38:31.466Z,4.13
2022-12-14T20:41:05.183Z,4.65
2022-12-14T20:43:41.115Z,6.07
2022-12-14T20:46:33.178Z,5.18
2022-12-14T20:49:02.544Z,3.97
2022-12-14T20:51:37.970Z,5.65
2022-12-14T20:54:11.227Z,6.70
2022-12-14T20:56:38.187Z,3.58
2022-12-14T20:59:07.302Z,6.50
2022-12-14T21:01:37.228Z,5.13
2022-12-14T21:04:05.019Z,3.55
2022-12-14T21:06:33.471Z,6.40
2022-12-14T21:09:11.758Z,6.43
2022-12-14T21:12:06.111Z,5.13
2022-12-14T21:14:39.379Z,4.57
2022-12-14T21:17:06.386Z,4.18
2022-12-14T21:19:35.436Z,3.85
2022-12-14T21:22:06.987Z,4.85
2022-12-14T21:27:26.269Z,5.97
2022-12-14T21:29:53.371Z,4.57
2022-12-14T21:32:20.955Z,5.55
2022-12-14T21:34:48.279Z,5.05
2022-12-14T21:37:15.744Z,6.75
2022-12-14T21:39:43.670Z,5.72
2022-12-14T21:42:16.286Z,5.35
2022-12-14T21:44:45.457Z,5.40
2022-12-14T21:47:18.291Z,6.18
2022-12-14T21:49:47.193Z,4.15
2022-12-14T21:52:16.998Z,5.43
2022-12-14T21:54:44.318Z,3.58
2022-12-14T21:57:34.643Z,4.40
2022-12-14T22:00:02.340Z,3.97
2022-12-14T22:02:29.481Z,3.92
2022-12-14T22:04:56.418Z,3.88
2022-12-14T22:07:25.650Z,5.30
2022-12-14T22:09:52.280Z,4.63
2022-12-14T22:12:19.075Z,4.38
2022-12-14T22:14:46.374Z,4.32
2022-12-14T22:17:14.664Z,6.30
2022-12-14T22:19:41.317Z,5.10
2022-12-14T22:22:13.880Z,3.95
2022-12-14T22:24:40.905Z,5.03
2022-12-14T22:27:07.598Z,2.97
2022-12-14T22:29:34.245Z,3.95
2022-12-14T22:32:00.871Z,4.25
2022-12-14T22:34:27.585Z,4.70
2022-12-14T22:36:54.216Z,5.22
2022-12-14T22:39:20.758Z,5.50
2022-12-14T22:41:49.023Z,6.25
2022-12-14T22:44:17.177Z,7.53
2022-12-14T22:46:43.856Z,8.07
2022-12-14T22:49:15.521Z,7.25
2022-12-14T22:51:42.400Z,8.40
2022-12-14T22:54:11.396Z,8.75
2022-12-14T22:56:45.735Z,7.15
2022-12-14T22:59:22.402Z,9.40
2022-12-14T23:01:49.947Z,9.30
2022-12-14T23:04:17.173Z,8.45
2022-12-14T23:06:43.851Z,9.55
2022-12-14T23:09:28.957Z,11.52
2022-12-14T23:12:18.263Z,8.07
2022-12-14T23:15:07.985Z,10.05
2022-12-14T23:17:53.708Z,13.40
2022-12-14T23:20:39.196Z,17.58
2022-12-14T23:23:26.614Z,14.52
2022-12-14T23:26:12.129Z,13.25
2022-12-14T23:28:57.277Z,10.50
2022-12-14T23:31:42.187Z,8.15
2022-12-14T23:34:27.398Z,8.15
2022-12-14T23:37:17.989Z,7.55
2022-12-14T23:40:04.979Z,7.43
2022-12-14T23:42:50.006Z,8.25
2022-12-14T23:45:35.321Z,7.97
2022-12-14T23:48:20.322Z,9.13
2022-12-14T23:51:06.799Z,8.40
2022-12-14T23:53:52.618Z,8.38
2022-12-14T23:56:37.914Z,8.15
2022-12-14T23:59:28.024Z,7.50
